Time;durP1;ratioP1;P1;durP2;ratioP2;P2;SDS_P1;SDS_P2;PMS_P1;PMS_P2;Temp;Humidity;BMP_temperature;BMP_pressure;BME280_temperature;BME280_humidity;BME280_pressure;Samples;Min_cycle;Max_cycle;Signal;HPM_P1;HPM_P2
2022/02/24 00:00:20;;;;;;;;;;;22.30;32.60;;;;;;5089422;28;20108;-68
2022/02/24 00:02:47;;;;;;;;;;;22.30;32.60;;;;;;5086663;28;20301;-68
2022/02/24 00:08:19;;;;;;;;;;;22.30;32.60;;;;;;5086299;28;19930;-68
2022/02/24 00:10:46;;;;;;;;;;;22.30;33.20;;;;;;5090041;28;20019;-68
2022/02/24 00:13:15;;;;;;;;;;;22.30;32.60;;;;;;5087139;28;19993;-68
2022/02/24 00:15:43;;;;;;;;;;;22.30;32.60;;;;;;5089742;28;20020;-68
2022/02/24 00:18:10;;;;;;;;;;;22.30;32.60;;;;;;5069114;28;20337;-68
2022/02/24 00:20:39;;;;;;;;;;;22.30;32.60;;;;;;5088674;28;21315;-68
2022/02/24 00:23:06;;;;;;;;;;;22.30;32.60;;;;;;5086725;28;19924;-68
2022/02/24 00:25:33;;;;;;;;;;;22.30;32.60;;;;;;5089567;28;19924;-68
2022/02/24 00:28:00;;;;;;;;;;;22.30;32.60;;;;;;5086564;28;19928;-68
2022/02/24 00:30:45;;;;;;;;;;;22.30;32.60;;;;;;5089872;28;19967;-68
2022/02/24 00:33:12;;;;;;;;;;;22.30;32.60;;;;;;5086318;28;19924;-68
2022/02/24 00:35:39;;;;;;;;;;;22.30;32.60;;;;;;5093337;28;20384;-68
2022/02/24 00:38:08;;;;;;;;;;;22.30;32.60;;;;;;5090212;28;19924;-68
2022/02/24 00:40:36;;;;;;;;;;;22.30;32.60;;;;;;5093444;28;20018;-68
2022/02/24 00:43:02;;;;;;;;;;;22.30;32.60;;;;;;5089862;28;20377;-68
2022/02/24 00:45:31;;;;;;;;;;;22.20;32.50;;;;;;5074738;28;19971;-68
2022/02/24 00:47:59;;;;;;;;;;;22.30;32.60;;;;;;5090580;28;20022;-68
2022/02/24 00:50:26;;;;;;;;;;;22.30;32.60;;;;;;5092470;28;20361;-68
2022/02/24 00:52:56;;;;;;;;;;;22.20;32.60;;;;;;5090381;28;19970;-68
2022/02/24 00:55:25;;;;;;;;;;;22.20;32.60;;;;;;5092693;28;19931;-68
2022/02/24 00:57:52;;;;;;;;;;;22.20;32.60;;;;;;5090008;28;19924;-68
2022/02/24 01:00:19;;;;;;;;;;;22.20;32.60;;;;;;5092742;28;19975;-68
2022/02/24 01:02:47;;;;;;;;;;;22.20;32.60;;;;;;5089882;28;20049;-68
2022/02/24 01:08:20;;;;;;;;;;;22.20;32.60;;;;;;5089496;28;20044;-68
2022/02/24 01:10:47;;;;;;;;;;;22.20;32.60;;;;;;5093165;28;19975;-68
2022/02/24 01:13:14;;;;;;;;;;;22.20;32.60;;;;;;5089493;28;20046;-68
2022/02/24 01:15:42;;;;;;;;;;;22.20;32.60;;;;;;5092274;28;20444;-68
2022/02/24 01:18:09;;;;;;;;;;;22.20;32.60;;;;;;5090282;28;19924;-68
2022/02/24 01:20:36;;;;;;;;;;;22.20;32.60;;;;;;5074390;28;19924;-67
2022/02/24 01:23:05;;;;;;;;;;;22.20;32.60;;;;;;5088965;28;19924;-68
2022/02/24 01:25:32;;;;;;;;;;;22.20;32.60;;;;;;5092602;28;20316;-68
2022/02/24 01:28:00;;;;;;;;;;;22.20;32.60;;;;;;5089539;28;19932;-68
2022/02/24 01:30:48;;;;;;;;;;;22.10;32.60;;;;;;5092271;28;19924;-68
2022/02/24 01:33:15;;;;;;;;;;;22.10;32.60;;;;;;5089088;28;20004;-68
2022/02/24 01:35:43;;;;;;;;;;;22.20;32.70;;;;;;5092720;28;20297;-68
2022/02/24 01:38:10;;;;;;;;;;;22.20;32.60;;;;;;5088996;28;20405;-68
2022/02/24 01:40:37;;;;;;;;;;;22.20;32.60;;;;;;5092162;28;20022;-68
2022/02/24 01:43:04;;;;;;;;;;;22.20;32.60;;;;;;5089714;28;20346;-68
2022/02/24 01:45:31;;;;;;;;;;;22.20;32.60;;;;;;5091191;28;19959;-68
2022/02/24 01:47:58;;;;;;;;;;;22.20;32.60;;;;;;5089293;28;19964;-68
2022/02/24 01:50:28;;;;;;;;;;;22.20;32.60;;;;;;5092039;28;19977;-68
2022/02/24 01:52:55;;;;;;;;;;;22.20;32.60;;;;;;5088381;28;19931;-68
2022/02/24 01:58:15;;;;;;;;;;;22.20;32.50;;;;;;5088724;28;19971;-69
2022/02/24 02:00:42;;;;;;;;;;;22.10;32.50;;;;;;5091992;28;19928;-68
2022/02/24 02:03:10;;;;;;;;;;;22.20;32.50;;;;;;5088004;28;19924;-68
2022/02/24 02:05:37;;;;;;;;;;;22.10;32.50;;;;;;5091690;28;20001;-68
2022/02/24 02:08:04;;;;;;;;;;;22.10;32.50;;;;;;5088597;28;19981;-68
2022/02/24 02:10:33;;;;;;;;;;;22.10;32.50;;;;;;5091598;28;19968;-68
2022/02/24 02:13:00;;;;;;;;;;;22.10;32.50;;;;;;5088760;28;19928;-68
2022/02/24 02:15:27;;;;;;;;;;;22.10;32.50;;;;;;5091433;28;19924;-68
2022/02/24 02:17:54;;;;;;;;;;;22.10;32.50;;;;;;5088824;28;19947;-68
2022/02/24 02:20:21;;;;;;;;;;;22.10;32.80;;;;;;5091078;28;20100;-68
2022/02/24 02:22:49;;;;;;;;;;;22.10;32.50;;;;;;5088263;28;19930;-68
2022/02/24 02:25:20;;;;;;;;;;;22.10;32.60;;;;;;5090865;28;20365;-71
2022/02/24 02:27:49;;;;;;;;;;;22.10;32.50;;;;;;5071137;28;20093;-68
2022/02/24 02:30:16;;;;;;;;;;;22.00;32.50;;;;;;5072798;28;19971;-68
2022/02/24 02:32:43;;;;;;;;;;;22.10;32.60;;;;;;5088463;28;19971;-68
2022/02/24 02:35:11;;;;;;;;;;;22.10;32.50;;;;;;5090267;28;19973;-68
2022/02/24 02:37:40;;;;;;;;;;;22.00;32.50;;;;;;5088490;28;20408;-68
2022/02/24 02:40:48;;;;;;;;;;;22.10;32.50;;;;;;5090325;28;19943;-68
2022/02/24 02:43:15;;;;;;;;;;;22.00;32.50;;;;;;5087978;28;19982;-68
2022/02/24 02:45:42;;;;;;;;;;;22.10;32.60;;;;;;5091024;28;19994;-68
2022/02/24 02:48:09;;;;;;;;;;;22.00;32.60;;;;;;5087896;28;20014;-68
2022/02/24 02:50:36;;;;;;;;;;;22.00;32.50;;;;;;5090600;28;19924;-68
2022/02/24 02:53:04;;;;;;;;;;;22.10;32.60;;;;;;5087685;28;20171;-68
2022/02/24 02:55:31;;;;;;;;;;;22.10;32.60;;;;;;5091016;28;20080;-68
2022/02/24 02:57:58;;;;;;;;;;;22.10;32.60;;;;;;5087472;28;20476;-68
2022/02/24 03:00:25;;;;;;;;;;;22.00;32.50;;;;;;5090514;28;19967;-68
2022/02/24 03:02:52;;;;;;;;;;;22.10;32.50;;;;;;5087934;28;19925;-68
2022/02/24 03:08:23;;;;;;;;;;;22.10;32.50;;;;;;5087722;28;19925;-69
2022/02/24 03:10:50;;;;;;;;;;;22.10;32.50;;;;;;5072824;28;19981;-68
2022/02/24 03:13:18;;;;;;;;;;;22.10;32.50;;;;;;5087663;28;19985;-68
2022/02/24 03:15:46;;;;;;;;;;;22.10;32.50;;;;;;5090361;28;20330;-68
2022/02/24 03:18:13;;;;;;;;;;;22.00;32.40;;;;;;5087580;28;20388;-68
2022/02/24 03:20:40;;;;;;;;;;;22.00;32.40;;;;;;5072340;28;20011;-68
2022/02/24 03:23:08;;;;;;;;;;;22.00;32.40;;;;;;5087065;28;19982;-68
2022/02/24 03:25:35;;;;;;;;;;;22.00;32.40;;;;;;5090375;28;20147;-68
2022/02/24 03:28:03;;;;;;;;;;;22.00;32.40;;;;;;5087106;28;20202;-68
2022/02/24 03:30:45;;;;;;;;;;;22.00;32.40;;;;;;5072234;28;19987;-68
2022/02/24 03:33:12;;;;;;;;;;;22.00;32.40;;;;;;5087050;28;19935;-68
2022/02/24 03:35:43;;;;;;;;;;;22.00;32.50;;;;;;5090425;28;19971;-68
2022/02/24 03:38:10;;;;;;;;;;;22.00;32.50;;;;;;5087415;28;19924;-68
2022/02/24 03:40:37;;;;;;;;;;;22.00;32.50;;;;;;5090012;28;19924;-68
2022/02/24 03:43:04;;;;;;;;;;;22.00;32.50;;;;;;5087594;28;20377;-68
2022/02/24 03:45:31;;;;;;;;;;;22.00;32.50;;;;;;5089558;28;19928;-68
2022/02/24 03:47:58;;;;;;;;;;;22.00;32.40;;;;;;5087122;28;20005;-68
2022/02/24 03:50:26;;;;;;;;;;;22.00;32.50;;;;;;5089791;28;20418;-68
2022/02/24 03:52:53;;;;;;;;;;;22.00;32.50;;;;;;5087217;28;19924;-68
2022/02/24 03:55:53;;;;;;;;;;;22.00;32.50;;;;;;5089830;28;20478;-68
2022/02/24 03:58:20;;;;;;;;;;;21.90;32.40;;;;;;5086728;28;20020;-68
2022/02/24 04:00:47;;;;;;;;;;;21.90;32.40;;;;;;5090269;28;19993;-68
2022/02/24 04:03:18;;;;;;;;;;;21.90;32.50;;;;;;5086428;28;19924;-68
2022/02/24 04:05:45;;;;;;;;;;;21.90;32.40;;;;;;5090183;28;19930;-68
2022/02/24 04:08:12;;;;;;;;;;;21.90;32.40;;;;;;5086601;28;20488;-68
2022/02/24 04:10:39;;;;;;;;;;;21.90;32.50;;;;;;5094280;28;19968;-68
2022/02/24 04:13:06;;;;;;;;;;;21.90;32.50;;;;;;5090942;28;19924;-68
2022/02/24 04:15:34;;;;;;;;;;;21.90;32.40;;;;;;5093665;28;20018;-68
2022/02/24 04:18:01;;;;;;;;;;;21.90;32.40;;;;;;5091052;28;20046;-68
2022/02/24 04:20:28;;;;;;;;;;;21.90;32.50;;;;;;5093491;28;19938;-68
2022/02/24 04:22:55;;;;;;;;;;;21.90;32.40;;;;;;5091078;28;20335;-68
2022/02/24 04:25:22;;;;;;;;;;;21.90;32.40;;;;;;5093389;28;20347;-69
2022/02/24 04:27:51;;;;;;;;;;;21.90;32.40;;;;;;5090806;28;19958;-68
2022/02/24 04:33:22;;;;;;;;;;;21.90;32.40;;;;;;5090828;28;20296;-68
2022/02/24 04:35:49;;;;;;;;;;;21.90;32.40;;;;;;5093354;28;19924;-68
2022/02/24 04:38:16;;;;;;;;;;;21.90;32.40;;;;;;5088415;28;19993;-69
2022/02/24 04:40:43;;;;;;;;;;;21.90;32.30;;;;;;5093163;28;20313;-68
2022/02/24 04:43:12;;;;;;;;;;;21.90;32.30;;;;;;5089473;28;19928;-68
2022/02/24 04:45:39;;;;;;;;;;;21.90;32.30;;;;;;5093012;28;20020;-68
2022/02/24 04:48:07;;;;;;;;;;;21.90;32.30;;;;;;5087616;28;19931;-68
2022/02/24 04:50:34;;;;;;;;;;;21.90;32.30;;;;;;5092515;28;19924;-68
2022/02/24 04:53:01;;;;;;;;;;;21.90;32.30;;;;;;5089822;28;20412;-68
2022/02/24 04:55:46;;;;;;;;;;;21.90;32.30;;;;;;5089532;28;19924;-69
2022/02/24 04:58:16;;;;;;;;;;;21.90;32.30;;;;;;5088381;28;20006;-68
2022/02/24 05:00:43;;;;;;;;;;;21.90;32.30;;;;;;5075211;28;19947;-68
2022/02/24 05:03:10;;;;;;;;;;;21.90;32.40;;;;;;5071214;28;19977;-68
2022/02/24 05:05:38;;;;;;;;;;;21.90;32.40;;;;;;5092495;28;19924;-68
2022/02/24 05:08:05;;;;;;;;;;;21.90;32.40;;;;;;5087863;28;19936;-68
2022/02/24 05:10:32;;;;;;;;;;;21.90;32.40;;;;;;5092575;28;20198;-68
2022/02/24 05:12:59;;;;;;;;;;;21.90;32.40;;;;;;5089881;28;19935;-68
2022/02/24 05:15:26;;;;;;;;;;;21.90;32.40;;;;;;5092183;28;20281;-68
2022/02/24 05:17:53;;;;;;;;;;;21.90;32.40;;;;;;5089867;28;19928;-68
2022/02/24 05:20:24;;;;;;;;;;;21.80;32.30;;;;;;5091173;28;19931;-68
2022/02/24 05:22:51;;;;;;;;;;;21.80;32.40;;;;;;5089705;28;19928;-68
2022/02/24 05:25:18;;;;;;;;;;;21.80;32.30;;;;;;5091783;28;19947;-68
2022/02/24 05:27:45;;;;;;;;;;;21.80;32.30;;;;;;5089236;28;19954;-68
2022/02/24 05:33:18;;;;;;;;;;;21.80;32.30;;;;;;5088777;28;20059;-68
2022/02/24 05:35:45;;;;;;;;;;;21.80;32.30;;;;;;5092160;28;20385;-68
2022/02/24 05:38:12;;;;;;;;;;;21.80;32.30;;;;;;5085839;28;19939;-68
2022/02/24 05:40:39;;;;;;;;;;;21.80;32.30;;;;;;5091880;28;20381;-68
2022/02/24 05:43:06;;;;;;;;;;;21.80;32.30;;;;;;5087645;28;19924;-68
2022/02/24 05:45:33;;;;;;;;;;;21.80;32.30;;;;;;5091843;28;19939;-69
2022/02/24 05:48:00;;;;;;;;;;;21.80;32.20;;;;;;5087169;28;19924;-68
2022/02/24 05:50:27;;;;;;;;;;;21.80;32.20;;;;;;5091738;28;20324;-68
2022/02/24 05:53:02;;;;;;;;;;;21.80;32.20;;;;;;5084308;28;19924;-68
2022/02/24 05:55:30;;;;;;;;;;;21.80;32.20;;;;;;5091681;28;20285;-68
2022/02/24 05:57:57;;;;;;;;;;;21.90;32.30;;;;;;5080502;28;19928;-68
2022/02/24 06:00:24;;;;;;;;;;;21.90;32.20;;;;;;5090508;28;20403;-69
2022/02/24 06:02:51;;;;;;;;;;;21.80;32.10;;;;;;5084242;28;20066;-68
2022/02/24 06:08:23;;;;;;;;;;;21.90;32.00;;;;;;5087093;28;19924;-68
2022/02/24 06:10:50;;;;;;;;;;;21.90;31.80;;;;;;5052605;28;20322;-67
2022/02/24 06:13:17;;;;;;;;;;;21.90;31.60;;;;;;5084107;28;19924;-68
2022/02/24 06:15:45;;;;;;;;;;;21.90;31.50;;;;;;5090954;28;20001;-67
2022/02/24 06:18:18;;;;;;;;;;;21.90;31.50;;;;;;5082031;28;20023;-67
2022/02/24 06:20:48;;;;;;;;;;;21.90;31.40;;;;;;5088719;28;19970;-67
2022/02/24 06:23:15;;;;;;;;;;;21.90;31.60;;;;;;5091626;28;19969;-67
2022/02/24 06:25:42;;;;;;;;;;;21.90;31.50;;;;;;5090083;28;19924;-67
2022/02/24 06:28:09;;;;;;;;;;;21.90;31.50;;;;;;5081807;28;19978;-68
2022/02/24 06:30:36;;;;;;;;;;;21.90;31.50;;;;;;5089315;28;19959;-68
2022/02/24 06:33:03;;;;;;;;;;;22.00;31.40;;;;;;5080439;28;20467;-67
2022/02/24 06:38:19;;;;;;;;;;;22.10;31.80;;;;;;5079144;28;20265;-68
2022/02/24 06:40:46;;;;;;;;;;;22.10;31.10;;;;;;5089822;28;20389;-68
2022/02/24 06:43:13;;;;;;;;;;;22.20;31.10;;;;;;5084201;28;19976;-64
2022/02/24 06:45:40;;;;;;;;;;;22.20;31.00;;;;;;5089232;28;19988;-67
2022/02/24 06:48:07;;;;;;;;;;;22.30;30.80;;;;;;5083765;28;19978;-69
2022/02/24 06:50:34;;;;;;;;;;;22.30;30.70;;;;;;5088653;28;19924;-68
2022/02/24 06:53:01;;;;;;;;;;;22.30;30.70;;;;;;5106613;28;20039;-67
2022/02/24 06:55:28;;;;;;;;;;;22.40;30.60;;;;;;5089818;28;19928;-66
2022/02/24 06:57:55;;;;;;;;;;;22.40;30.50;;;;;;5081672;28;19977;-67
2022/02/24 07:00:23;;;;;;;;;;;22.50;31.00;;;;;;5087853;28;19959;-69
2022/02/24 07:02:51;;;;;;;;;;;22.50;30.40;;;;;;5088927;28;19971;-70
2022/02/24 07:05:19;;;;;;;;;;;22.60;30.30;;;;;;5089003;28;19991;-69
2022/02/24 07:07:46;;;;;;;;;;;22.60;30.40;;;;;;5083192;28;20377;-67
2022/02/24 07:10:13;;;;;;;;;;;22.70;30.30;;;;;;5099871;28;20296;-69
2022/02/24 07:12:42;;;;;;;;;;;22.70;30.10;;;;;;5088096;28;19976;-70
2022/02/24 07:15:09;;;;;;;;;;;22.80;30.10;;;;;;5088939;28;19967;-67
2022/02/24 07:17:41;;;;;;;;;;;22.80;30.10;;;;;;5083456;28;20011;-67
2022/02/24 07:20:09;;;;;;;;;;;22.90;30.00;;;;;;5084733;28;19970;-71
2022/02/24 07:22:36;;;;;;;;;;;22.90;30.00;;;;;;5089849;28;20266;-70
2022/02/24 07:25:04;;;;;;;;;;;23.00;30.00;;;;;;5088315;28;19971;-71
2022/02/24 07:27:34;;;;;;;;;;;23.00;30.30;;;;;;5067273;28;20389;-73
2022/02/24 07:30:03;;;;;;;;;;;23.10;30.90;;;;;;5085141;28;19983;-72
2022/02/24 07:32:30;;;;;;;;;;;23.20;31.40;;;;;;5088652;28;20412;-72
2022/02/24 07:34:58;;;;;;;;;;;23.20;31.70;;;;;;5088976;28;20366;-65
2022/02/24 07:37:25;;;;;;;;;;;23.20;31.80;;;;;;5068201;28;20288;-70
2022/02/24 07:39:52;;;;;;;;;;;23.30;32.10;;;;;;5082508;28;20273;-71
2022/02/24 07:42:19;;;;;;;;;;;23.30;32.10;;;;;;5087252;28;19970;-70
2022/02/24 07:44:46;;;;;;;;;;;23.30;31.90;;;;;;5088779;28;19976;-72
2022/02/24 07:47:15;;;;;;;;;;;23.30;32.40;;;;;;5089585;28;19955;-68
2022/02/24 07:49:43;;;;;;;;;;;23.40;31.80;;;;;;5084601;28;19924;-68
2022/02/24 07:52:10;;;;;;;;;;;23.40;31.70;;;;;;5090453;28;20011;-69
2022/02/24 07:54:37;;;;;;;;;;;23.50;31.80;;;;;;5089456;28;19924;-71
2022/02/24 07:57:04;;;;;;;;;;;23.50;31.70;;;;;;5089046;28;20015;-71
2022/02/24 07:59:31;;;;;;;;;;;23.50;31.70;;;;;;5087028;28;19924;-68
2022/02/24 08:02:02;;;;;;;;;;;23.50;31.70;;;;;;5089886;28;19928;-73
2022/02/24 08:04:29;;;;;;;;;;;23.50;31.60;;;;;;5086822;28;19936;-73
2022/02/24 08:06:57;;;;;;;;;;;23.60;31.60;;;;;;5076649;28;19947;-73
2022/02/24 08:09:24;;;;;;;;;;;23.60;31.50;;;;;;5083595;28;20337;-70
2022/02/24 08:14:38;;;;;;;;;;;23.70;31.50;;;;;;5085959;28;20292;-71
2022/02/24 08:17:05;;;;;;;;;;;23.60;31.40;;;;;;5088738;28;19960;-69
2022/02/24 08:19:32;;;;;;;;;;;23.70;31.50;;;;;;5085826;28;19928;-69
2022/02/24 08:21:59;;;;;;;;;;;23.70;31.60;;;;;;5086361;28;19963;-72
2022/02/24 08:24:26;;;;;;;;;;;23.70;31.60;;;;;;5071848;28;19977;-70
2022/02/24 08:26:54;;;;;;;;;;;23.70;31.60;;;;;;5076072;28;19924;-73
2022/02/24 08:29:23;;;;;;;;;;;23.70;31.60;;;;;;5058730;28;19970;-72
2022/02/24 08:31:50;;;;;;;;;;;23.70;31.40;;;;;;5073617;28;20634;-72
2022/02/24 08:34:17;;;;;;;;;;;23.70;31.30;;;;;;5078284;28;20369;-71
2022/02/24 08:36:44;;;;;;;;;;;23.70;31.20;;;;;;5078687;28;19924;-71
2022/02/24 08:39:12;;;;;;;;;;;23.80;31.10;;;;;;5080844;28;19928;-72
2022/02/24 08:41:41;;;;;;;;;;;23.80;31.00;;;;;;5078439;28;19967;-69
2022/02/24 08:44:08;;;;;;;;;;;23.80;30.90;;;;;;5078310;28;20015;-70
2022/02/24 08:46:42;;;;;;;;;;;23.80;30.70;;;;;;5065732;28;19979;-70
2022/02/24 08:49:09;;;;;;;;;;;23.80;30.60;;;;;;5066709;28;20327;-68
2022/02/24 08:51:36;;;;;;;;;;;23.80;30.60;;;;;;5069265;28;19970;-73
2022/02/24 08:54:03;;;;;;;;;;;23.80;30.60;;;;;;5070833;28;20396;-72
2022/02/24 08:56:30;;;;;;;;;;;23.90;30.60;;;;;;5070375;28;19928;-71
2022/02/24 08:58:57;;;;;;;;;;;23.90;30.50;;;;;;5083017;28;20523;-69
2022/02/24 09:04:36;;;;;;;;;;;24.00;30.50;;;;;;5086462;28;19924;-68
2022/02/24 09:07:04;;;;;;;;;;;24.10;30.50;;;;;;5087899;28;19932;-68
2022/02/24 09:09:32;;;;;;;;;;;24.10;30.60;;;;;;5088520;28;19928;-68
2022/02/24 09:11:59;;;;;;;;;;;24.10;30.60;;;;;;5083939;28;20381;-69
2022/02/24 09:17:36;;;;;;;;;;;24.10;30.50;;;;;;5083843;28;20400;-68
2022/02/24 09:20:03;;;;;;;;;;;24.10;30.40;;;;;;5086403;28;19928;-68
2022/02/24 09:22:30;;;;;;;;;;;24.10;30.30;;;;;;5085743;28;19928;-68
2022/02/24 09:24:57;;;;;;;;;;;24.20;30.30;;;;;;5088901;28;19931;-68
2022/02/24 09:27:27;;;;;;;;;;;24.20;30.30;;;;;;5083997;28;20319;-71
2022/02/24 09:29:55;;;;;;;;;;;24.20;30.30;;;;;;5087128;28;19924;-68
2022/02/24 09:32:22;;;;;;;;;;;24.20;30.20;;;;;;5090835;28;20288;-66
2022/02/24 09:34:49;;;;;;;;;;;24.20;30.00;;;;;;5091741;28;19924;-68
2022/02/24 09:37:17;;;;;;;;;;;24.20;30.00;;;;;;5088305;28;20120;-70
2022/02/24 09:39:44;;;;;;;;;;;24.20;30.00;;;;;;5070526;28;19924;-71
2022/02/24 09:42:13;;;;;;;;;;;24.20;30.00;;;;;;5091604;28;19970;-70
2022/02/24 09:44:41;;;;;;;;;;;24.20;30.00;;;;;;5073911;28;19928;-67
2022/02/24 09:47:09;;;;;;;;;;;24.30;29.90;;;;;;5086664;28;19935;-69
2022/02/24 09:49:36;;;;;;;;;;;24.30;29.90;;;;;;5086121;28;19924;-68
2022/02/24 09:52:04;;;;;;;;;;;24.30;29.90;;;;;;5091620;28;19924;-69
2022/02/24 09:54:31;;;;;;;;;;;24.30;29.90;;;;;;5091073;28;19947;-68
2022/02/24 09:56:58;;;;;;;;;;;24.30;29.80;;;;;;5090718;28;19928;-68
2022/02/24 09:59:25;;;;;;;;;;;24.30;29.80;;;;;;5084773;28;19932;-68
2022/02/24 10:01:53;;;;;;;;;;;24.30;29.70;;;;;;5091413;28;20015;-64
2022/02/24 10:04:23;;;;;;;;;;;24.30;29.60;;;;;;5091129;28;20315;-64
2022/02/24 10:06:50;;;;;;;;;;;24.30;29.60;;;;;;5088173;28;19999;-66
2022/02/24 10:09:28;;;;;;;;;;;24.40;29.50;;;;;;5085084;28;19924;-67
2022/02/24 10:12:05;;;;;;;;;;;24.40;29.40;;;;;;5090448;28;19977;-67
2022/02/24 10:14:33;;;;;;;;;;;24.40;29.40;;;;;;5091240;28;19928;-66
2022/02/24 10:17:02;;;;;;;;;;;24.40;29.40;;;;;;5089299;28;20347;-68
2022/02/24 10:19:31;;;;;;;;;;;24.40;29.30;;;;;;5086272;28;19991;-66
2022/02/24 10:22:16;;;;;;;;;;;24.40;29.20;;;;;;5090113;28;19924;-67
2022/02/24 10:24:44;;;;;;;;;;;24.50;29.20;;;;;;5072922;28;19928;-66
2022/02/24 10:27:20;;;;;;;;;;;24.50;29.20;;;;;;5089050;28;20344;-66
2022/02/24 10:29:51;;;;;;;;;;;24.50;29.20;;;;;;5087595;28;19960;-66
2022/02/24 10:32:34;;;;;;;;;;;24.50;29.20;;;;;;5090423;28;19928;-66
2022/02/24 10:35:21;;;;;;;;;;;24.50;29.10;;;;;;5090944;28;19925;-67
2022/02/24 10:37:52;;;;;;;;;;;24.50;29.00;;;;;;5085062;28;19932;-66
2022/02/24 10:40:19;;;;;;;;;;;24.50;29.00;;;;;;5088786;28;19981;-66
2022/02/24 10:42:46;;;;;;;;;;;24.50;29.00;;;;;;5089933;28;20376;-66
2022/02/24 10:45:17;;;;;;;;;;;24.50;29.00;;;;;;5090826;28;20393;-65
2022/02/24 10:47:54;;;;;;;;;;;24.50;29.00;;;;;;5089034;28;19932;-66
2022/02/24 10:50:21;;;;;;;;;;;24.60;29.10;;;;;;5087508;28;19965;-64
2022/02/24 10:53:04;;;;;;;;;;;24.60;29.10;;;;;;5089475;28;19924;-66
2022/02/24 10:55:31;;;;;;;;;;;24.60;29.10;;;;;;5089021;28;19924;-66
2022/02/24 10:58:04;;;;;;;;;;;24.60;29.00;;;;;;5089828;28;19924;-67
2022/02/24 11:00:32;;;;;;;;;;;24.60;29.00;;;;;;5088318;28;19955;-67
2022/02/24 11:02:59;;;;;;;;;;;24.70;29.00;;;;;;5089706;28;19925;-68
2022/02/24 11:05:26;;;;;;;;;;;24.70;28.90;;;;;;5088520;28;19974;-68
2022/02/24 11:07:53;;;;;;;;;;;24.70;28.90;;;;;;5090035;28;19928;-68
2022/02/24 11:10:20;;;;;;;;;;;24.70;29.10;;;;;;5067417;28;19990;-67
2022/02/24 11:12:48;;;;;;;;;;;24.70;29.10;;;;;;5082344;28;19943;-70
2022/02/24 11:15:18;;;;;;;;;;;24.70;29.10;;;;;;5086206;28;19924;-71
2022/02/24 11:17:45;;;;;;;;;;;24.70;28.90;;;;;;5082676;28;20376;-71
2022/02/24 11:20:12;;;;;;;;;;;24.70;28.80;;;;;;5087777;28;20015;-70
2022/02/24 11:22:41;;;;;;;;;;;24.70;28.70;;;;;;5083755;28;19932;-69
2022/02/24 11:25:10;;;;;;;;;;;24.70;28.60;;;;;;5101260;28;20378;-68
2022/02/24 11:27:40;;;;;;;;;;;24.70;28.50;;;;;;5086102;28;20305;-66
2022/02/24 11:30:12;;;;;;;;;;;24.70;28.60;;;;;;5085860;28;19928;-68
2022/02/24 11:32:44;;;;;;;;;;;24.80;28.60;;;;;;5079138;28;20045;-68
2022/02/24 11:35:17;;;;;;;;;;;24.80;28.40;;;;;;5068040;28;19970;-67
2022/02/24 11:37:50;;;;;;;;;;;24.80;28.20;;;;;;5083682;28;19983;-68
2022/02/24 11:40:20;;;;;;;;;;;24.80;28.20;;;;;;5084632;28;19971;-68
2022/02/24 11:43:04;;;;;;;;;;;24.90;28.20;;;;;;5078780;28;19928;-68
2022/02/24 11:45:33;;;;;;;;;;;24.90;28.30;;;;;;5087661;28;19935;-68
2022/02/24 11:48:02;;;;;;;;;;;24.90;28.30;;;;;;5078879;28;19989;-65
2022/02/24 11:50:31;;;;;;;;;;;24.90;28.30;;;;;;5074136;28;19932;-64
2022/02/24 11:52:58;;;;;;;;;;;24.90;28.40;;;;;;5079028;28;19978;-67
2022/02/24 11:55:45;;;;;;;;;;;24.90;28.40;;;;;;5084073;28;19930;-64
2022/02/24 11:58:33;;;;;;;;;;;24.90;28.40;;;;;;5081212;28;19931;-67
2022/02/24 12:01:08;;;;;;;;;;;24.90;28.40;;;;;;5076373;28;19932;-66
2022/02/24 12:03:53;;;;;;;;;;;24.90;28.40;;;;;;5080607;28;20372;-66
2022/02/24 12:06:22;;;;;;;;;;;24.90;28.40;;;;;;5089374;28;19978;-62
2022/02/24 12:12:20;;;;;;;;;;;24.90;28.30;;;;;;5077270;28;20023;-69
2022/02/24 12:14:48;;;;;;;;;;;25.00;28.30;;;;;;5074435;28;20008;-65
2022/02/24 12:17:16;;;;;;;;;;;25.00;28.40;;;;;;5070189;28;20408;-66
2022/02/24 12:19:55;;;;;;;;;;;25.00;28.60;;;;;;5072114;28;19929;-67
2022/02/24 12:22:39;;;;;;;;;;;25.00;28.80;;;;;;5079029;28;19978;-64
2022/02/24 12:25:15;;;;;;;;;;;25.00;28.90;;;;;;5067144;28;19924;-65
2022/02/24 12:27:47;;;;;;;;;;;25.00;28.90;;;;;;5085969;28;19981;-66
2022/02/24 12:30:17;;;;;;;;;;;25.00;28.90;;;;;;5101139;28;19934;-68
2022/02/24 12:32:55;;;;;;;;;;;25.10;28.90;;;;;;5080603;28;19998;-65
2022/02/24 12:35:23;;;;;;;;;;;25.10;28.90;;;;;;5071082;28;19924;-71
2022/02/24 12:37:51;;;;;;;;;;;25.10;28.90;;;;;;5089773;28;19978;-67
2022/02/24 12:40:42;;;;;;;;;;;25.10;29.00;;;;;;5086805;28;19924;-65
2022/02/24 12:43:11;;;;;;;;;;;25.10;29.30;;;;;;5069348;28;19982;-68
2022/02/24 12:45:41;;;;;;;;;;;25.10;29.30;;;;;;5072403;28;20007;-68
2022/02/24 12:48:10;;;;;;;;;;;25.20;29.40;;;;;;5070824;28;19924;-67
2022/02/24 12:50:45;;;;;;;;;;;25.10;29.30;;;;;;5104105;28;20373;-68
2022/02/24 12:53:15;;;;;;;;;;;25.20;29.30;;;;;;5080455;28;19924;-68
2022/02/24 12:55:44;;;;;;;;;;;25.20;29.10;;;;;;5092500;28;20011;-67
2022/02/24 12:58:12;;;;;;;;;;;25.30;29.20;;;;;;5092443;28;19924;-66
2022/02/24 13:00:41;;;;;;;;;;;25.30;29.10;;;;;;5108780;28;19924;-70
2022/02/24 13:03:09;;;;;;;;;;;25.30;29.10;;;;;;5084401;28;19940;-68
2022/02/24 13:05:47;;;;;;;;;;;25.30;29.00;;;;;;5090278;28;19982;-70
2022/02/24 13:11:03;;;;;;;;;;;25.30;28.60;;;;;;5092278;28;19931;-69
2022/02/24 13:13:30;;;;;;;;;;;25.30;28.40;;;;;;5085351;28;19928;-68
2022/02/24 13:15:58;;;;;;;;;;;25.40;28.40;;;;;;5071800;28;19925;-70
2022/02/24 13:18:26;;;;;;;;;;;25.30;28.20;;;;;;5072030;28;19962;-74
2022/02/24 13:21:00;;;;;;;;;;;25.30;28.10;;;;;;5071893;28;19970;-67
2022/02/24 13:23:27;;;;;;;;;;;25.30;28.00;;;;;;5052846;28;19936;-72
2022/02/24 13:25:56;;;;;;;;;;;25.30;28.00;;;;;;5079646;28;19943;-79
2022/02/24 13:28:26;;;;;;;;;;;25.30;28.00;;;;;;5067453;28;19931;-66
2022/02/24 13:30:54;;;;;;;;;;;25.40;28.00;;;;;;5089834;28;19928;-67
2022/02/24 13:33:26;;;;;;;;;;;25.40;28.20;;;;;;5091913;28;20383;-67
2022/02/24 13:35:53;;;;;;;;;;;25.40;28.20;;;;;;5086181;28;19928;-67
2022/02/24 13:38:20;;;;;;;;;;;25.40;28.20;;;;;;5086175;28;19955;-66
2022/02/24 13:40:50;;;;;;;;;;;25.40;28.00;;;;;;5090435;28;20114;-66
2022/02/24 13:43:17;;;;;;;;;;;25.40;28.10;;;;;;5091037;28;19924;-66
2022/02/24 13:45:44;;;;;;;;;;;25.40;28.20;;;;;;5091984;28;19924;-66
2022/02/24 13:48:12;;;;;;;;;;;25.40;28.00;;;;;;5091780;28;19978;-65
2022/02/24 13:50:43;;;;;;;;;;;25.40;27.90;;;;;;5087352;28;20285;-65
2022/02/24 13:53:15;;;;;;;;;;;25.30;27.80;;;;;;5090843;28;19930;-66
2022/02/24 13:55:50;;;;;;;;;;;25.30;27.80;;;;;;5090016;28;19924;-66
2022/02/24 13:58:17;;;;;;;;;;;25.30;27.60;;;;;;5091225;28;20185;-67
2022/02/24 14:00:46;;;;;;;;;;;25.30;27.30;;;;;;5081236;28;20053;-71
2022/02/24 14:03:13;;;;;;;;;;;25.30;27.20;;;;;;5080480;28;19932;-63
2022/02/24 14:05:44;;;;;;;;;;;25.30;27.30;;;;;;5087718;28;20037;-63
2022/02/24 14:08:11;;;;;;;;;;;25.30;27.40;;;;;;5087266;28;19935;-64
2022/02/24 14:10:38;;;;;;;;;;;25.30;27.50;;;;;;5071617;28;20006;-64
2022/02/24 14:13:05;;;;;;;;;;;25.30;27.40;;;;;;5075135;28;20270;-63
2022/02/24 14:15:32;;;;;;;;;;;25.30;27.40;;;;;;5089707;28;19959;-65
2022/02/24 14:18:01;;;;;;;;;;;25.30;27.50;;;;;;5084791;28;19932;-64
2022/02/24 14:20:28;;;;;;;;;;;25.30;27.50;;;;;;5085811;28;19924;-64
2022/02/24 14:22:55;;;;;;;;;;;25.20;27.50;;;;;;5083631;28;19938;-63
2022/02/24 14:25:23;;;;;;;;;;;25.30;27.60;;;;;;5087536;28;19928;-68
2022/02/24 14:27:50;;;;;;;;;;;25.30;27.60;;;;;;5088368;28;20445;-64
2022/02/24 14:30:17;;;;;;;;;;;25.30;27.60;;;;;;5090131;28;19993;-65
2022/02/24 14:32:44;;;;;;;;;;;25.30;28.10;;;;;;5085985;28;19928;-65
2022/02/24 14:35:11;;;;;;;;;;;25.30;27.70;;;;;;5088625;28;20338;-66
2022/02/24 14:37:38;;;;;;;;;;;25.30;27.70;;;;;;5091106;28;20292;-65
2022/02/24 14:40:06;;;;;;;;;;;25.40;27.70;;;;;;5090705;28;20018;-66
2022/02/24 14:42:40;;;;;;;;;;;25.40;27.60;;;;;;5086539;28;20337;-64
2022/02/24 14:45:08;;;;;;;;;;;25.40;27.60;;;;;;5088388;28;19977;-65
2022/02/24 14:47:36;;;;;;;;;;;25.40;27.60;;;;;;5090810;28;20460;-64
2022/02/24 14:50:04;;;;;;;;;;;25.40;27.50;;;;;;5071868;28;20402;-65
2022/02/24 14:52:31;;;;;;;;;;;25.40;27.40;;;;;;5084521;28;19931;-66
2022/02/24 14:55:02;;;;;;;;;;;25.40;27.40;;;;;;5088950;28;19924;-66
2022/02/24 14:57:30;;;;;;;;;;;25.40;27.40;;;;;;5089043;28;19943;-64
2022/02/24 14:59:58;;;;;;;;;;;25.40;27.40;;;;;;5089213;28;20490;-66
2022/02/24 15:02:28;;;;;;;;;;;25.50;27.40;;;;;;5083691;28;19951;-65
2022/02/24 15:05:15;;;;;;;;;;;25.50;27.40;;;;;;5088753;28;20403;-64